Time;durP1;ratioP1;P1;durP2;ratioP2;P2;SDS_P1;SDS_P2;PMS_P1;PMS_P2;Temp;Humidity;BMP_temperature;BMP_pressure;BME280_temperature;BME280_humidity;BME280_pressure;Samples;Min_cycle;Max_cycle;Signal;HPM_P1;HPM_P2
2023/01/18 00:00:16;;;;;;;8.73;7.82;;;3.90;99.90;;;;;;5052235;28;20037;-66
2023/01/18 00:02:45;;;;;;;7.95;7.15;;;3.90;99.90;;;;;;5051339;28;20057;-67
2023/01/18 00:05:12;;;;;;;8.20;7.25;;;3.80;99.90;;;;;;5052201;28;20033;-65
2023/01/18 00:07:38;;;;;;;7.50;6.80;;;3.80;99.90;;;;;;5053559;28;20388;-67
2023/01/18 00:10:04;;;;;;;7.50;6.40;;;3.80;99.90;;;;;;5055602;28;20112;-67
2023/01/18 00:12:31;;;;;;;8.27;6.53;;;3.80;99.90;;;;;;5056357;28;20033;-65
2023/01/18 00:14:57;;;;;;;6.95;6.25;;;3.80;99.90;;;;;;5055118;28;20486;-67
2023/01/18 00:17:23;;;;;;;7.40;6.70;;;3.80;99.90;;;;;;5055917;28;20060;-66
2023/01/18 00:19:48;;;;;;;7.45;6.65;;;3.80;99.90;;;;;;5055463;28;20021;-67
2023/01/18 00:22:14;;;;;;;7.10;6.38;;;3.70;99.90;;;;;;5055718;28;20025;-67
2023/01/18 00:24:40;;;;;;;7.95;6.97;;;3.80;99.90;;;;;;5055509;28;20037;-67
2023/01/18 00:27:08;;;;;;;6.72;6.03;;;3.80;99.90;;;;;;5055157;28;20115;-67
2023/01/18 00:29:34;;;;;;;6.90;6.20;;;3.70;99.90;;;;;;5054101;28;20037;-67
2023/01/18 00:31:59;;;;;;;6.68;5.97;;;3.70;99.90;;;;;;5056706;28;20029;-67
2023/01/18 00:34:26;;;;;;;7.03;6.32;;;3.70;99.90;;;;;;5058146;28;20370;-67
2023/01/18 00:36:52;;;;;;;6.78;6.15;;;3.70;99.90;;;;;;5057374;28;20025;-66
2023/01/18 00:39:17;;;;;;;8.88;6.55;;;3.70;99.90;;;;;;5056710;28;20068;-67
2023/01/18 00:43:37;;;;;;;7.45;6.35;;;3.70;99.90;;;;;;5056159;28;20512;-67
2023/01/18 00:44:28;;;;;;;7.22;6.53;;;3.70;99.90;;;;;;5056769;28;20478;-67
2023/01/18 00:46:54;;;;;;;7.10;6.40;;;3.70;99.90;;;;;;5056761;28;20025;-67
2023/01/18 00:49:21;;;;;;;7.35;6.53;;;3.70;99.90;;;;;;5057028;28;20036;-67
2023/01/18 00:51:46;;;;;;;7.28;6.28;;;3.80;99.90;;;;;;5056396;28;20040;-67
2023/01/18 00:54:12;;;;;;;7.22;6.20;;;3.80;99.90;;;;;;5056120;28;20096;-66
2023/01/18 00:56:38;;;;;;;7.43;6.72;;;3.80;99.90;;;;;;5055939;28;20059;-66
2023/01/18 00:59:03;;;;;;;6.10;5.50;;;3.80;99.90;;;;;;5054771;28;20025;-67
2023/01/18 01:01:29;;;;;;;5.63;5.10;;;3.80;99.90;;;;;;5054706;28;20021;-67
2023/01/18 01:06:45;;;;;;;6.45;4.95;;;3.80;99.90;;;;;;5055106;28;20031;-67
2023/01/18 01:09:17;;;;;;;6.75;5.10;;;3.80;99.90;;;;;;5054995;28;20025;-67
2023/01/18 01:12:31;;;;;;;6.93;5.55;;;3.80;99.90;;;;;;5055156;28;20386;-67
2023/01/18 01:28:09;;;;;;;5.93;4.88;;;3.90;99.90;;;;;;5054187;28;20036;-67
2023/01/18 01:30:35;;;;;;;8.95;5.43;;;3.90;99.90;;;;;;5054627;28;20444;-66
2023/01/18 01:33:00;;;;;;;8.68;5.82;;;3.80;99.90;;;;;;5054051;28;20391;-67
2023/01/18 01:35:26;;;;;;;5.78;4.93;;;3.80;99.90;;;;;;5054423;28;20378;-67
2023/01/18 01:37:52;;;;;;;7.18;5.95;;;3.90;99.90;;;;;;5053770;28;20480;-67
2023/01/18 01:40:17;;;;;;;7.32;6.43;;;3.90;99.90;;;;;;5054490;28;20049;-67
2023/01/18 01:42:43;;;;;;;7.75;5.80;;;3.90;99.90;;;;;;5054226;28;20124;-67
2023/01/18 01:45:09;;;;;;;6.53;5.82;;;3.90;99.90;;;;;;5052605;28;20025;-65
2023/01/18 01:47:43;;;;;;;6.63;5.72;;;3.90;99.90;;;;;;5054326;28;20029;-65
2023/01/18 01:50:18;;;;;;;6.53;5.40;;;3.90;99.90;;;;;;5053790;28;20029;-66
2023/01/18 01:52:46;;;;;;;5.47;4.75;;;3.90;99.90;;;;;;5054304;28;20112;-66
2023/01/18 01:55:14;;;;;;;6.45;5.30;;;3.90;99.90;;;;;;5052370;28;20442;-67
2023/01/18 01:57:57;;;;;;;5.68;4.72;;;3.90;99.90;;;;;;5053725;28;20029;-67
2023/01/18 02:00:23;;;;;;;5.72;5.07;;;3.90;99.90;;;;;;5053583;28;20025;-67
2023/01/18 02:03:07;;;;;;;6.82;4.68;;;3.90;99.90;;;;;;5053700;28;20033;-70
2023/01/18 02:05:41;;;;;;;6.25;5.22;;;3.90;99.90;;;;;;5053819;28;20032;-67
2023/01/18 02:08:10;;;;;;;5.20;4.70;;;4.00;99.90;;;;;;5053680;28;20108;-66
2023/01/18 02:10:36;;;;;;;6.00;4.50;;;4.00;99.90;;;;;;5053583;28;20359;-67
2023/01/18 02:13:03;;;;;;;6.30;5.15;;;4.00;99.90;;;;;;5053063;28;20033;-67
2023/01/18 02:15:57;;;;;;;6.75;4.82;;;4.00;99.90;;;;;;5053979;28;20108;-67
2023/01/18 02:18:34;;;;;;;8.20;4.93;;;3.90;99.90;;;;;;5053469;28;20031;-67
2023/01/18 02:21:12;;;;;;;5.28;4.75;;;3.90;99.90;;;;;;5052923;28;20053;-67
2023/01/18 02:23:58;;;;;;;6.05;4.80;;;4.00;99.90;;;;;;5053441;28;20045;-67
2023/01/18 02:26:49;;;;;;;6.10;5.50;;;3.90;99.90;;;;;;5053286;28;20031;-67
2023/01/18 02:29:25;;;;;;;7.87;6.13;;;3.90;99.90;;;;;;5052726;28;20044;-67
2023/01/18 02:32:02;;;;;;;8.38;6.07;;;3.90;99.90;;;;;;5052667;28;20464;-67
2023/01/18 02:34:45;;;;;;;6.18;5.43;;;3.90;99.90;;;;;;5053033;28;20436;-67
2023/01/18 02:37:35;;;;;;;5.43;4.93;;;3.90;99.90;;;;;;5052947;28;20033;-67
2023/01/18 02:40:10;;;;;;;4.70;4.20;;;3.90;99.90;;;;;;5051404;28;20402;-67
2023/01/18 02:48:14;;;;;;;6.15;4.13;;;3.80;99.90;;;;;;5055574;28;20086;-67
2023/01/18 02:50:40;;;;;;;5.25;4.65;;;3.80;99.90;;;;;;5056629;28;20417;-67
2023/01/18 02:53:09;;;;;;;4.40;4.00;;;3.80;99.90;;;;;;5056368;28;20033;-67
2023/01/18 02:55:44;;;;;;;4.43;4.03;;;3.80;99.90;;;;;;5053552;28;20047;-67
2023/01/18 02:58:20;;;;;;;5.80;5.07;;;3.80;99.90;;;;;;5052676;28;20451;-67
2023/01/18 03:01:07;;;;;;;5.30;4.60;;;3.70;99.90;;;;;;5052983;28;20032;-67
2023/01/18 03:03:34;;;;;;;5.80;5.20;;;3.70;99.90;;;;;;5052530;28;20060;-67
2023/01/18 03:06:02;;;;;;;6.13;4.88;;;3.70;99.90;;;;;;5051625;28;20424;-66
2023/01/18 03:08:43;;;;;;;6.13;5.35;;;3.70;99.90;;;;;;5052574;28;20106;-65
2023/01/18 03:11:13;;;;;;;6.23;5.63;;;3.70;99.90;;;;;;5050221;28;20029;-67
2023/01/18 03:13:42;;;;;;;5.95;5.35;;;3.70;99.90;;;;;;5052226;28;20029;-68
2023/01/18 03:16:21;;;;;;;6.63;5.43;;;3.70;99.90;;;;;;5051533;28;20043;-66
2023/01/18 03:19:03;;;;;;;5.97;5.43;;;3.70;99.90;;;;;;5050095;28;20064;-66
2023/01/18 03:21:47;;;;;;;8.02;6.53;;;3.70;99.90;;;;;;5049965;28;20382;-66
2023/01/18 03:24:15;;;;;;;8.10;6.13;;;3.70;99.90;;;;;;5049089;28;20021;-65
2023/01/18 03:26:49;;;;;;;7.68;6.10;;;3.70;99.90;;;;;;5051630;28;20033;-67
2023/01/18 03:35:08;;;;;;;7.22;6.53;;;3.70;99.90;;;;;;5052612;28;20442;-66
2023/01/18 03:37:41;;;;;;;7.75;6.95;;;3.70;99.90;;;;;;5052633;28;20425;-67
2023/01/18 03:40:20;;;;;;;8.82;7.30;;;3.80;99.90;;;;;;5051781;28;20052;-67
2023/01/18 03:42:58;;;;;;;7.20;6.50;;;3.80;99.90;;;;;;5052790;28;20068;-65
2023/01/18 03:45:31;;;;;;;8.07;6.28;;;3.80;99.90;;;;;;5056618;28;20488;-65
2023/01/18 03:47:57;;;;;;;6.60;5.90;;;3.80;99.90;;;;;;5056362;28;20103;-66
2023/01/18 03:50:28;;;;;;;6.72;5.93;;;3.80;99.90;;;;;;5056073;28;20392;-66
2023/01/18 03:53:00;;;;;;;6.80;6.10;;;3.70;99.90;;;;;;5056199;28;20035;-66
2023/01/18 03:55:48;;;;;;;7.60;6.28;;;3.70;99.90;;;;;;5056519;28;20460;-65
2023/01/18 03:58:23;;;;;;;9.30;6.82;;;3.70;99.90;;;;;;5054263;28;20032;-66
2023/01/18 04:00:51;;;;;;;7.95;7.03;;;3.70;99.90;;;;;;5055810;28;20028;-65
2023/01/18 04:03:17;;;;;;;7.75;6.78;;;3.70;99.90;;;;;;5055277;28;20052;-66
2023/01/18 04:05:43;;;;;;;8.82;7.25;;;3.70;99.90;;;;;;5056056;28;20458;-66
2023/01/18 04:08:08;;;;;;;7.55;6.35;;;3.70;99.90;;;;;;5055355;28;20517;-66
2023/01/18 04:10:34;;;;;;;7.25;6.35;;;3.70;99.90;;;;;;5056110;28;20025;-66
2023/01/18 04:13:00;;;;;;;6.78;6.05;;;3.70;99.90;;;;;;5054090;28;20083;-69
2023/01/18 04:15:25;;;;;;;6.90;6.18;;;3.70;99.90;;;;;;5063632;28;20056;-66
2023/01/18 04:17:54;;;;;;;8.50;7.28;;;3.70;99.90;;;;;;5075852;28;20036;-65
2023/01/18 04:20:20;;;;;;;8.43;6.97;;;3.70;99.90;;;;;;5076170;28;20544;-66
2023/01/18 04:22:51;;;;;;;8.93;7.47;;;3.70;99.90;;;;;;5076184;28;20032;-66
2023/01/18 04:25:16;;;;;;;8.30;7.20;;;3.80;99.90;;;;;;5075602;28;20020;-66
2023/01/18 04:27:42;;;;;;;7.35;6.53;;;3.80;99.90;;;;;;5075949;28;20376;-66
2023/01/18 04:30:08;;;;;;;8.00;7.10;;;3.80;99.90;;;;;;5075382;28;20484;-66
2023/01/18 04:32:34;;;;;;;8.55;7.65;;;3.80;99.90;;;;;;5075508;28;20115;-66
2023/01/18 04:34:59;;;;;;;9.52;8.25;;;3.80;99.90;;;;;;5075574;28;20099;-66
2023/01/18 04:37:32;;;;;;;9.43;8.38;;;3.70;99.90;;;;;;5074779;28;20025;-66
2023/01/18 04:39:59;;;;;;;9.65;8.65;;;3.70;99.90;;;;;;5075482;28;20377;-66
2023/01/18 04:42:25;;;;;;;9.50;8.40;;;3.70;99.90;;;;;;5075068;28;20450;-65
2023/01/18 04:44:51;;;;;;;10.48;9.38;;;3.70;99.90;;;;;;5075096;28;20495;-66
2023/01/18 04:47:17;;;;;;;10.85;9.27;;;3.70;99.90;;;;;;5074876;28;20100;-66
2023/01/18 04:49:43;;;;;;;11.57;9.32;;;3.70;99.90;;;;;;5074958;28;20103;-66
2023/01/18 04:52:09;;;;;;;10.23;9.07;;;3.70;99.90;;;;;;5073973;28;20035;-66
2023/01/18 04:54:34;;;;;;;10.27;8.88;;;3.70;99.90;;;;;;5057017;28;20024;-65
2023/01/18 04:57:00;;;;;;;11.45;9.50;;;3.70;99.90;;;;;;5074869;28;20470;-65
2023/01/18 04:59:27;;;;;;;10.27;8.50;;;3.70;99.90;;;;;;5073446;28;20024;-65
2023/01/18 05:01:53;;;;;;;9.52;8.52;;;3.70;99.90;;;;;;5073000;28;20033;-67
2023/01/18 05:04:18;;;;;;;10.38;9.27;;;3.70;99.90;;;;;;5054105;28;20359;-67
2023/01/18 05:06:46;;;;;;;10.77;8.93;;;3.70;99.90;;;;;;5054887;28;20032;-66
2023/01/18 05:09:12;;;;;;;10.25;9.10;;;3.70;99.90;;;;;;5054451;28;20025;-65
2023/01/18 05:11:38;;;;;;;11.52;8.70;;;3.80;99.90;;;;;;5054523;28;20090;-65
2023/01/18 05:14:04;;;;;;;11.27;9.88;;;3.80;99.90;;;;;;5054421;28;20032;-66
2023/01/18 05:16:29;;;;;;;12.52;9.18;;;3.70;99.90;;;;;;5054312;28;20061;-67
2023/01/18 05:18:55;;;;;;;12.38;9.68;;;3.80;99.90;;;;;;5054677;28;20382;-67
2023/01/18 05:21:21;;;;;;;13.55;10.25;;;3.80;99.90;;;;;;5054157;28;20060;-65
2023/01/18 05:23:46;;;;;;;13.55;10.05;;;3.80;99.90;;;;;;5053327;28;20037;-66
2023/01/18 05:26:18;;;;;;;14.85;10.43;;;3.70;99.90;;;;;;5054131;28;20414;-66
2023/01/18 05:28:44;;;;;;;14.77;11.00;;;3.80;99.90;;;;;;5054665;28;20051;-66
2023/01/18 05:31:11;;;;;;;13.70;10.52;;;3.80;99.90;;;;;;5054070;28;20029;-66
2023/01/18 05:33:36;;;;;;;16.17;11.38;;;3.80;99.90;;;;;;5054287;28;20515;-66
2023/01/18 05:36:02;;;;;;;13.43;10.70;;;3.80;99.90;;;;;;5054036;28;20021;-66
2023/01/18 05:38:28;;;;;;;14.50;10.35;;;3.80;99.90;;;;;;5053563;28;20025;-66
2023/01/18 05:40:53;;;;;;;14.82;11.63;;;3.80;99.90;;;;;;5053915;28;20056;-66
2023/01/18 05:43:24;;;;;;;15.38;12.30;;;3.80;99.90;;;;;;5053607;28;20095;-66
2023/01/18 05:45:49;;;;;;;16.48;11.85;;;3.80;99.90;;;;;;5053332;28;20027;-66
2023/01/18 05:48:15;;;;;;;17.45;12.57;;;3.80;99.90;;;;;;5053397;28;20037;-66
2023/01/18 05:50:44;;;;;;;16.00;12.98;;;3.80;99.90;;;;;;5053764;28;20510;-65
2023/01/18 05:53:10;;;;;;;16.70;12.85;;;3.80;99.90;;;;;;5053487;28;20057;-65
2023/01/18 05:55:35;;;;;;;18.75;14.68;;;3.80;99.90;;;;;;5054166;28;20029;-66
2023/01/18 05:58:01;;;;;;;19.23;14.30;;;3.80;99.90;;;;;;5053823;28;20025;-65
2023/01/18 06:00:27;;;;;;;20.02;14.88;;;3.90;99.90;;;;;;5053515;28;20021;-66
2023/01/18 06:02:53;;;;;;;18.33;14.20;;;3.90;99.90;;;;;;5053834;28;20068;-67
2023/01/18 06:05:20;;;;;;;17.95;14.07;;;3.90;99.90;;;;;;5052821;28;20467;-67
2023/01/18 06:07:49;;;;;;;19.48;13.85;;;3.90;99.90;;;;;;5053573;28;20029;-67
2023/01/18 06:10:15;;;;;;;17.83;14.07;;;3.90;99.90;;;;;;5053287;28;20108;-67
2023/01/18 06:12:41;;;;;;;20.52;14.45;;;3.90;99.90;;;;;;5053787;28;20448;-67
2023/01/18 06:15:08;;;;;;;20.77;15.13;;;3.90;99.90;;;;;;5053264;28;20417;-67
2023/01/18 06:17:34;;;;;;;18.75;14.00;;;3.90;99.90;;;;;;5052862;28;20387;-67
2023/01/18 06:20:00;;;;;;;18.85;14.23;;;3.90;99.90;;;;;;5054146;28;20033;-67
2023/01/18 06:22:25;;;;;;;19.08;12.20;;;3.90;99.90;;;;;;5052686;28;20041;-67
2023/01/18 06:24:51;;;;;;;17.88;13.00;;;3.90;99.90;;;;;;5053069;28;20029;-67
2023/01/18 06:27:17;;;;;;;17.20;12.88;;;3.90;99.90;;;;;;5053240;28;20489;-67
2023/01/18 06:29:42;;;;;;;19.50;13.82;;;3.90;99.90;;;;;;5052928;28;20444;-67
2023/01/18 06:32:08;;;;;;;18.52;13.45;;;3.90;99.90;;;;;;5053174;28;20033;-67
2023/01/18 06:34:35;;;;;;;17.75;14.05;;;3.90;99.90;;;;;;5052866;28;20048;-67
2023/01/18 06:37:01;;;;;;;20.95;15.52;;;3.90;99.90;;;;;;5053415;28;20108;-67
2023/01/18 06:39:27;;;;;;;21.77;15.35;;;3.90;99.90;;;;;;5052828;28;20437;-67
2023/01/18 06:41:53;;;;;;;23.42;17.02;;;3.80;99.90;;;;;;5053001;28;20428;-67
2023/01/18 06:44:19;;;;;;;24.23;16.73;;;3.80;99.90;;;;;;5052930;28;20025;-67
2023/01/18 06:46:45;;;;;;;27.27;19.00;;;3.80;99.90;;;;;;5053013;28;20114;-67
2023/01/18 06:49:11;;;;;;;25.38;17.65;;;3.80;99.90;;;;;;5053017;28;20029;-67
2023/01/18 06:51:37;;;;;;;27.40;18.60;;;3.80;99.90;;;;;;5052559;28;20100;-67
2023/01/18 06:54:03;;;;;;;28.23;20.02;;;3.80;99.90;;;;;;5052871;28;20385;-67
2023/01/18 06:56:29;;;;;;;32.10;21.17;;;3.80;99.90;;;;;;5052228;28;20101;-67
2023/01/18 06:58:57;;;;;;;29.95;20.55;;;3.80;99.90;;;;;;5052668;28;20116;-66
2023/01/18 07:01:24;;;;;;;29.10;20.42;;;3.80;99.90;;;;;;5052299;28;20028;-67
2023/01/18 07:03:49;;;;;;;32.38;21.63;;;3.80;99.90;;;;;;5052597;28;20037;-66
2023/01/18 07:06:15;;;;;;;29.13;19.17;;;3.80;99.90;;;;;;5052303;28;20404;-67
2023/01/18 07:08:41;;;;;;;32.08;20.98;;;3.80;99.90;;;;;;5052113;28;20025;-67
2023/01/18 07:11:10;;;;;;;32.00;20.33;;;3.80;99.90;;;;;;5052610;28;20386;-66
2023/01/18 07:13:39;;;;;;;34.83;21.35;;;3.80;99.90;;;;;;5052232;28;20100;-66
2023/01/18 07:16:05;;;;;;;36.55;21.73;;;3.80;99.90;;;;;;5052587;28;20029;-66
2023/01/18 07:18:31;;;;;;;33.88;22.05;;;3.80;99.90;;;;;;5052018;28;20075;-66
2023/01/18 07:21:08;;;;;;;32.78;21.60;;;3.80;99.90;;;;;;5052868;28;20029;-66
2023/01/18 07:23:36;;;;;;;32.03;21.27;;;3.80;99.90;;;;;;5052098;28;20065;-66
2023/01/18 07:26:16;;;;;;;31.13;21.00;;;3.90;99.90;;;;;;5052540;28;20389;-65
2023/01/18 07:28:43;;;;;;;35.58;22.17;;;3.90;99.90;;;;;;5058750;28;20020;-67
2023/01/18 07:31:10;;;;;;;36.38;22.27;;;3.90;99.90;;;;;;5072042;28;20472;-66
2023/01/18 07:33:35;;;;;;;31.55;21.15;;;3.90;99.90;;;;;;5070802;28;20358;-67
2023/01/18 07:36:05;;;;;;;33.10;21.92;;;3.90;99.90;;;;;;5071219;28;20046;-66
2023/01/18 07:38:31;;;;;;;34.75;22.90;;;3.90;99.90;;;;;;5053792;28;20083;-66
2023/01/18 07:41:01;;;;;;;36.03;23.85;;;3.90;99.90;;;;;;5048795;28;20076;-66
2023/01/18 07:43:30;;;;;;;43.78;24.05;;;3.90;99.90;;;;;;5051512;28;20033;-66
2023/01/18 07:45:57;;;;;;;36.13;22.30;;;4.00;99.90;;;;;;5052240;28;20116;-66
2023/01/18 07:48:24;;;;;;;36.50;22.65;;;4.00;99.90;;;;;;5051717;28;20540;-66
2023/01/18 07:50:58;;;;;;;40.10;22.67;;;4.00;99.90;;;;;;5052044;28;20083;-66
2023/01/18 07:53:25;;;;;;;34.70;22.92;;;4.00;99.90;;;;;;5051619;28;20082;-67
2023/01/18 07:55:51;;;;;;;36.10;21.60;;;4.00;99.90;;;;;;5052303;28;20032;-66
2023/01/18 07:58:18;;;;;;;37.17;24.20;;;4.00;99.90;;;;;;5052536;28;20049;-67
2023/01/18 08:00:44;;;;;;;37.50;23.25;;;4.00;99.90;;;;;;5051994;28;20028;-67
2023/01/18 08:03:15;;;;;;;39.90;24.70;;;4.00;99.90;;;;;;5042530;28;20033;-67
2023/01/18 08:05:41;;;;;;;38.78;25.13;;;4.10;99.90;;;;;;5031668;28;20021;-67
2023/01/18 08:08:13;;;;;;;40.78;24.27;;;4.10;99.90;;;;;;5032172;28;20057;-67
2023/01/18 08:10:39;;;;;;;34.83;23.05;;;4.20;99.90;;;;;;5031413;28;20032;-67
2023/01/18 08:13:08;;;;;;;33.42;23.25;;;4.20;99.90;;;;;;5031676;28;20041;-65
2023/01/18 08:15:33;;;;;;;30.85;21.27;;;4.30;99.90;;;;;;5031958;28;20152;-67
2023/01/18 08:18:07;;;;;;;33.75;20.83;;;4.40;99.90;;;;;;5033136;28;20470;-67
2023/01/18 08:20:33;;;;;;;28.33;19.35;;;4.40;99.90;;;;;;5031890;28;20355;-66
2023/01/18 08:23:00;;;;;;;29.27;20.52;;;4.50;99.90;;;;;;5031709;28;20037;-66
2023/01/18 08:25:31;;;;;;;29.42;20.80;;;4.50;99.90;;;;;;5031667;28;20421;-66
2023/01/18 08:27:58;;;;;;;28.67;19.35;;;4.50;99.90;;;;;;5031784;28;20466;-66
2023/01/18 08:30:27;;;;;;;29.67;19.17;;;4.50;99.90;;;;;;5035108;28;20087;-66
2023/01/18 08:32:57;;;;;;;27.20;18.83;;;4.60;99.90;;;;;;5035693;28;20114;-65
2023/01/18 08:35:33;;;;;;;26.80;17.83;;;4.60;99.90;;;;;;5035323;28;20030;-65
2023/01/18 08:38:00;;;;;;;22.80;16.70;;;4.70;99.90;;;;;;5035562;28;20485;-66
2023/01/18 08:40:26;;;;;;;23.52;16.20;;;4.70;99.90;;;;;;5034976;28;20045;-68
2023/01/18 08:42:56;;;;;;;24.20;15.93;;;4.80;99.90;;;;;;5035677;28;20040;-66
2023/01/18 08:45:22;;;;;;;20.35;15.13;;;4.80;99.90;;;;;;5035453;28;20064;-67
2023/01/18 08:47:53;;;;;;;21.42;15.07;;;4.80;99.90;;;;;;5035396;28;20399;-67
2023/01/18 08:50:19;;;;;;;20.90;14.70;;;4.80;99.90;;;;;;5035402;28;20021;-66
2023/01/18 08:52:45;;;;;;;21.33;14.50;;;4.80;99.90;;;;;;5034733;28;20394;-67
2023/01/18 08:55:10;;;;;;;21.77;13.05;;;4.80;99.90;;;;;;5035566;28;20465;-67
2023/01/18 08:57:36;;;;;;;18.17;13.00;;;4.80;99.90;;;;;;5034819;28;20417;-67
2023/01/18 09:00:03;;;;;;;17.33;11.48;;;4.80;99.90;;;;;;5035108;28;20457;-67
2023/01/18 09:02:28;;;;;;;17.15;10.75;;;4.80;99.90;;;;;;5034676;28;20377;-67
2023/01/18 09:04:54;;;;;;;17.65;10.40;;;4.80;99.90;;;;;;5037789;28;20104;-67
2023/01/18 09:07:20;;;;;;;14.00;9.38;;;4.90;99.90;;;;;;5035795;28;20025;-67
2023/01/18 09:09:45;;;;;;;12.73;8.48;;;4.90;99.90;;;;;;5052912;28;20056;-67
2023/01/18 09:12:12;;;;;;;12.45;8.52;;;5.00;99.90;;;;;;5057767;28;20033;-67
2023/01/18 09:14:38;;;;;;;11.25;7.07;;;5.00;99.90;;;;;;5054870;28;20028;-66
2023/01/18 09:17:04;;;;;;;9.75;6.47;;;5.10;99.90;;;;;;5054731;28;20350;-67
2023/01/18 09:19:30;;;;;;;9.40;7.10;;;5.20;99.90;;;;;;5054344;28;20051;-67
2023/01/18 09:21:55;;;;;;;11.77;6.80;;;5.30;99.90;;;;;;5054652;28;20037;-66
2023/01/18 09:24:21;;;;;;;10.88;6.20;;;5.40;99.90;;;;;;5054401;28;20144;-67
2023/01/18 09:26:50;;;;;;;8.18;5.72;;;5.40;99.90;;;;;;5054117;28;20029;-66
2023/01/18 09:29:17;;;;;;;9.10;6.10;;;5.50;99.90;;;;;;5054152;28;20037;-65
2023/01/18 09:31:42;;;;;;;9.32;5.45;;;5.60;99.90;;;;;;5054203;28;20454;-66
2023/01/18 09:34:09;;;;;;;6.93;5.25;;;5.70;99.90;;;;;;5053439;28;20108;-67
2023/01/18 09:36:35;;;;;;;8.02;5.20;;;5.80;99.90;;;;;;5054091;28;20056;-67
2023/01/18 09:39:00;;;;;;;5.55;3.95;;;5.90;99.90;;;;;;5054238;28;20068;-66
2023/01/18 09:41:35;;;;;;;9.23;3.88;;;5.90;99.90;;;;;;5053238;28;20048;-67
2023/01/18 09:44:28;;;;;;;6.88;3.45;;;6.10;99.90;;;;;;5054620;28;20461;-66
2023/01/18 09:46:58;;;;;;;4.57;2.72;;;6.20;99.90;;;;;;5052959;28;20382;-67
2023/01/18 09:49:44;;;;;;;4.57;2.97;;;6.30;99.10;;;;;;5054306;28;20032;-67
2023/01/18 09:52:19;;;;;;;3.58;2.75;;;6.40;98.00;;;;;;5053008;28;20033;-67
2023/01/18 09:55:26;;;;;;;3.92;2.83;;;6.50;97.10;;;;;;5053315;28;20024;-67
2023/01/18 09:58:01;;;;;;;4.85;3.13;;;6.70;95.90;;;;;;5053411;28;20432;-67
2023/01/18 10:00:30;;;;;;;3.63;2.42;;;6.80;95.30;;;;;;5054029;28;20116;-67
2023/01/18 10:02:59;;;;;;;6.35;3.00;;;6.90;93.80;;;;;;5052317;28;20041;-66
2023/01/18 10:05:39;;;;;;;4.50;2.55;;;6.90;92.80;;;;;;5053537;28;20075;-66
2023/01/18 10:08:15;;;;;;;6.60;2.40;;;7.00;92.40;;;;;;5053492;28;20032;-66
2023/01/18 10:11:01;;;;;;;6.10;2.58;;;7.10;92.30;;;;;;5053413;28;20025;-65
2023/01/18 10:13:37;;;;;;;5.35;2.10;;;7.10;92.00;;;;;;5053660;28;20033;-66
2023/01/18 10:16:08;;;;;;;3.53;1.95;;;7.10;91.00;;;;;;5053612;28;20033;-67
2023/01/18 10:18:44;;;;;;;3.60;1.88;;;7.10;90.50;;;;;;5053272;28;20033;-67
2023/01/18 10:21:21;;;;;;;6.13;2.20;;;7.10;90.20;;;;;;5053606;28;20060;-67
2023/01/18 10:23:56;;;;;;;3.13;2.20;;;7.10;90.30;;;;;;5053054;28;20084;-67
2023/01/18 10:26:40;;;;;;;3.60;2.10;;;7.10;90.20;;;;;;5053436;28;20450;-67
2023/01/18 10:29:24;;;;;;;2.45;1.50;;;7.00;89.60;;;;;;5053365;28;20033;-67
2023/01/18 10:32:09;;;;;;;3.83;1.60;;;7.00;88.60;;;;;;5052513;28;20382;-67
2023/01/18 10:34:39;;;;;;;5.75;1.95;;;7.00;88.10;;;;;;5052424;28;20497;-67
2023/01/18 10:37:34;;;;;;;4.10;1.70;;;7.00;88.40;;;;;;5053455;28;20029;-67
2023/01/18 10:40:06;;;;;;;2.80;1.70;;;7.00;89.70;;;;;;5053006;28;20045;-66
2023/01/18 10:42:55;;;;;;;3.33;1.58;;;7.00;89.90;;;;;;5052570;28;20116;-67
2023/01/18 10:45:25;;;;;;;4.90;2.03;;;7.10;88.80;;;;;;5053020;28;20033;-66
2023/01/18 10:47:52;;;;;;;6.95;2.08;;;7.10;89.40;;;;;;5052296;28;20078;-66
2023/01/18 10:50:34;;;;;;;4.93;2.00;;;7.10;90.30;;;;;;5052636;28;20021;-66
2023/01/18 10:53:32;;;;;;;7.20;2.28;;;7.10;90.40;;;;;;5052387;28;20055;-66
2023/01/18 10:56:01;;;;;;;13.82;2.28;;;7.20;89.30;;;;;;5052870;28;20033;-66
2023/01/18 10:58:49;;;;;;;7.80;4.38;;;7.20;89.10;;;;;;5052827;28;20043;-66
2023/01/18 11:01:30;;;;;;;7.47;5.30;;;7.20;92.10;;;;;;5041762;28;20497;-66
2023/01/18 11:04:20;;;;;;;9.38;6.07;;;7.30;94.30;;;;;;5052428;28;20072;-66
2023/01/18 11:07:03;;;;;;;8.35;5.43;;;7.30;96.00;;;;;;5052012;28;20112;-66
2023/01/18 11:09:47;;;;;;;8.07;5.85;;;7.30;97.20;;;;;;5052342;28;20021;-66
2023/01/18 11:12:43;;;;;;;6.82;4.68;;;7.30;98.10;;;;;;5032698;28;20061;-67
2023/01/18 11:15:14;;;;;;;7.78;5.57;;;7.20;98.90;;;;;;5032805;28;20466;-66
2023/01/18 11:17:43;;;;;;;8.63;5.93;;;7.20;99.40;;;;;;5032185;28;20096;-67
2023/01/18 11:20:20;;;;;;;10.73;6.40;;;7.10;99.90;;;;;;5032563;28;20049;-67
2023/01/18 11:23:05;;;;;;;11.35;6.78;;;7.00;99.90;;;;;;5030653;28;20033;-67
2023/01/18 11:25:56;;;;;;;10.77;7.20;;;7.00;99.90;;;;;;5035635;28;20040;-66
2023/01/18 11:28:29;;;;;;;9.65;7.07;;;7.00;99.90;;;;;;5028500;28;20038;-67
2023/01/18 11:30:58;;;;;;;11.38;7.05;;;7.00;99.90;;;;;;5032758;28;20033;-67
2023/01/18 11:33:26;;;;;;;10.80;7.30;;;7.00;99.90;;;;;;5035268;28;20462;-67
2023/01/18 11:35:54;;;;;;;8.85;6.50;;;7.10;99.90;;;;;;5032202;28;20040;-67
2023/01/18 11:38:24;;;;;;;10.88;6.18;;;7.20;99.90;;;;;;5032842;28;20025;-67
2023/01/18 11:41:04;;;;;;;10.50;5.78;;;7.30;99.90;;;;;;5031700;28;20065;-67
2023/01/18 11:43:33;;;;;;;3.92;2.80;;;7.30;99.90;;;;;;5032526;28;20033;-66
2023/01/18 11:46:04;;;;;;;1.90;1.35;;;7.30;99.80;;;;;;5031891;28;20029;-65
2023/01/18 11:48:53;;;;;;;1.48;1.02;;;7.40;96.30;;;;;;5032498;28;20030;-66
2023/01/18 11:51:23;;;;;;;2.03;0.90;;;7.40;93.40;;;;;;5031104;28;20363;-67
2023/01/18 11:54:10;;;;;;;1.65;0.80;;;7.40;92.30;;;;;;5031840;28;20052;-66
2023/01/18 11:56:44;;;;;;;1.15;0.80;;;7.50;91.50;;;;;;5032060;28;20080;-66
2023/01/18 11:59:22;;;;;;;1.75;0.88;;;7.70;91.70;;;;;;5032279;28;20101;-66
2023/01/18 12:01:58;;;;;;;0.90;0.50;;;7.70;87.90;;;;;;5031677;28;20470;-66
2023/01/18 12:04:53;;;;;;;0.70;0.60;;;7.80;82.90;;;;;;5034269;28;20028;-66
2023/01/18 12:07:37;;;;;;;1.67;0.70;;;7.90;81.30;;;;;;5035925;28;20053;-66
2023/01/18 12:10:09;;;;;;;1.65;0.65;;;8.00;80.80;;;;;;5036136;28;20021;-65
2023/01/18 12:12:52;;;;;;;1.70;0.73;;;8.10;80.10;;;;;;5034952;28;20121;-66
2023/01/18 12:15:41;;;;;;;3.08;0.70;;;8.20;82.00;;;;;;5036709;28;20037;-65
2023/01/18 12:18:41;;;;;;;1.42;0.75;;;8.40;80.70;;;;;;5039164;28;20051;-66
2023/01/18 12:21:24;;;;;;;0.70;0.60;;;8.60;82.10;;;;;;5038743;28;20021;-65
2023/01/18 12:23:56;;;;;;;0.85;0.50;;;8.80;83.20;;;;;;5037406;28;20042;-66
2023/01/18 12:26:45;;;;;;;1.35;0.60;;;8.90;78.40;;;;;;5035858;28;20071;-66
2023/01/18 12:29:25;;;;;;;4.00;0.80;;;9.00;78.40;;;;;;5035915;28;20025;-66
2023/01/18 12:32:36;;;;;;;1.17;0.50;;;9.20;78.40;;;;;;5034049;28;20420;-66
2023/01/18 12:35:13;;;;;;;2.10;0.90;;;9.40;77.00;;;;;;5035362;28;20109;-66
2023/01/18 12:37:56;;;;;;;1.05;0.60;;;9.50;74.70;;;;;;5035656;28;20263;-65
2023/01/18 12:40:48;;;;;;;1.05;0.65;;;9.70;77.70;;;;;;5035511;28;20398;-67
2023/01/18 12:43:26;;;;;;;1.70;1.08;;;9.80;75.30;;;;;;5034972;28;20470;-67
2023/01/18 12:46:03;;;;;;;2.53;1.10;;;9.80;73.20;;;;;;5035295;28;20036;-67
2023/01/18 12:48:31;;;;;;;1.10;0.70;;;9.70;72.70;;;;;;5036040;28;20109;-67
2023/01/18 12:50:59;;;;;;;1.70;0.70;;;9.70;72.40;;;;;;5035202;28;20030;-67
2023/01/18 12:53:40;;;;;;;1.85;0.90;;;9.60;72.60;;;;;;5035268;28;20037;-67
2023/01/18 12:56:13;;;;;;;0.90;0.70;;;9.50;72.90;;;;;;5035323;28;20025;-67
2023/01/18 12:58:39;;;;;;;1.27;0.90;;;9.40;73.40;;;;;;5035811;28;20037;-67
2023/01/18 13:01:09;;;;;;;1.88;0.90;;;9.40;72.00;;;;;;5034595;28;20025;-67
2023/01/18 13:03:42;;;;;;;3.42;0.73;;;9.40;72.60;;;;;;5034707;28;20033;-67
2023/01/18 13:06:09;;;;;;;1.13;0.80;;;9.30;71.20;;;;;;5034846;28;20047;-67
2023/01/18 13:08:46;;;;;;;0.70;0.50;;;9.30;70.80;;;;;;5034665;28;20112;-67
2023/01/18 13:11:34;;;;;;;1.00;0.60;;;9.10;70.90;;;;;;5047972;28;20033;-67
2023/01/18 13:14:19;;;;;;;2.47;0.88;;;9.00;72.30;;;;;;5054455;28;20067;-67
2023/01/18 13:17:12;;;;;;;3.00;1.02;;;9.00;71.30;;;;;;5054244;28;20382;-65
2023/01/18 13:19:50;;;;;;;1.85;0.80;;;8.90;73.00;;;;;;5054689;28;20033;-65
2023/01/18 13:22:15;;;;;;;4.60;0.90;;;8.80;73.20;;;;;;5054740;28;20331;-67
2023/01/18 13:24:47;;;;;;;3.42;0.90;;;8.80;73.90;;;;;;5054661;28;20132;-66
2023/01/18 13:27:17;;;;;;;3.95;1.00;;;8.70;74.40;;;;;;5054632;28;20029;-66
2023/01/18 13:29:44;;;;;;;3.17;1.00;;;8.60;75.40;;;;;;5054499;28;20036;-67
2023/01/18 13:32:32;;;;;;;1.90;1.13;;;8.50;76.50;;;;;;5054147;28;20482;-67
2023/01/18 13:35:04;;;;;;;8.05;1.73;;;8.40;77.30;;;;;;5053438;28;20087;-67
2023/01/18 13:37:41;;;;;;;5.93;1.05;;;8.30;78.60;;;;;;5054238;28;20036;-66
2023/01/18 13:40:24;;;;;;;5.22;1.20;;;8.20;78.90;;;;;;5053790;28;20049;-66